Time;durP1;ratioP1;P1;durP2;ratioP2;P2;SDS_P1;SDS_P2;PMS_P1;PMS_P2;Temp;Humidity;BMP_temperature;BMP_pressure;BME280_temperature;BME280_humidity;BME280_pressure;Samples;Min_cycle;Max_cycle;Signal;HPM_P1;HPM_P2
2021/08/02 00:01:48;;;;;;;524.75;366.63;;;;;;;;;;4947106;29;20031;-73
2021/08/02 00:04:17;;;;;;;523.17;363.85;;;;;;;;;;4941177;29;20035;-73
2021/08/02 00:06:47;;;;;;;527.55;376.83;;;;;;;;;;4947754;29;20027;-74
2021/08/02 00:09:15;;;;;;;530.88;377.70;;;;;;;;;;4948255;29;20027;-74
2021/08/02 00:11:45;;;;;;;522.92;363.05;;;;;;;;;;4947788;29;20072;-73
2021/08/02 00:14:12;;;;;;;525.13;368.50;;;;;;;;;;4949505;29;20035;-73
2021/08/02 00:16:39;;;;;;;525.45;366.63;;;;;;;;;;4929730;28;20737;-74
2021/08/02 00:19:06;;;;;;;523.10;362.63;;;;;;;;;;4948528;29;20015;-73
2021/08/02 00:21:32;;;;;;;529.33;372.27;;;;;;;;;;4947475;28;20027;-73
2021/08/02 00:23:58;;;;;;;526.38;368.58;;;;;;;;;;4947538;29;20031;-73
2021/08/02 00:26:24;;;;;;;523.63;362.40;;;;;;;;;;4949333;28;20023;-74
2021/08/02 00:28:51;;;;;;;528.42;374.05;;;;;;;;;;4948863;28;20086;-74
2021/08/02 00:31:17;;;;;;;526.20;363.98;;;;;;;;;;4947940;29;20441;-74
2021/08/02 00:33:43;;;;;;;524.22;358.70;;;;;;;;;;4947384;29;20035;-74
2021/08/02 00:36:12;;;;;;;522.17;357.17;;;;;;;;;;4949413;28;20024;-75
2021/08/02 00:38:52;;;;;;;525.50;368.20;;;;;;;;;;4944155;29;20043;-74
2021/08/02 00:41:21;;;;;;;532.17;374.95;;;;;;;;;;4948975;29;20365;-76
2021/08/02 00:44:05;;;;;;;531.42;372.23;;;;;;;;;;4931060;28;20035;-74
2021/08/02 00:46:34;;;;;;;538.55;372.10;;;;;;;;;;4949052;28;20035;-74
2021/08/02 00:49:03;;;;;;;538.13;376.30;;;;;;;;;;4946505;28;20098;-75
2021/08/02 00:51:33;;;;;;;528.08;367.73;;;;;;;;;;4929733;28;20035;-75
2021/08/02 00:54:01;;;;;;;524.85;357.35;;;;;;;;;;4946967;29;20027;-74
2021/08/02 00:56:30;;;;;;;524.45;361.10;;;;;;;;;;4948583;29;20080;-74
2021/08/02 00:58:58;;;;;;;523.55;357.15;;;;;;;;;;4947793;28;20111;-74
2021/08/02 01:01:25;;;;;;;525.67;363.80;;;;;;;;;;4948547;29;20035;-74
2021/08/02 01:03:53;;;;;;;523.50;357.30;;;;;;;;;;4947146;29;20035;-74
2021/08/02 01:06:20;;;;;;;523.45;357.55;;;;;;;;;;4947762;28;20042;-74
2021/08/02 01:08:48;;;;;;;524.42;364.40;;;;;;;;;;4947634;29;20757;-74
2021/08/02 01:11:14;;;;;;;527.85;374.40;;;;;;;;;;4948751;29;20404;-75
2021/08/02 01:13:42;;;;;;;524.55;365.88;;;;;;;;;;4945445;29;20019;-74
2021/08/02 01:16:09;;;;;;;529.83;377.35;;;;;;;;;;4948498;28;20034;-75
2021/08/02 01:18:36;;;;;;;528.38;371.25;;;;;;;;;;4947402;29;20039;-75
2021/08/02 01:21:07;;;;;;;528.92;371.55;;;;;;;;;;4928801;29;20619;-74
2021/08/02 01:23:33;;;;;;;527.47;365.40;;;;;;;;;;4923119;28;20341;-75
2021/08/02 01:25:59;;;;;;;528.72;369.15;;;;;;;;;;4948603;29;20505;-74
2021/08/02 01:28:25;;;;;;;536.67;378.05;;;;;;;;;;4947595;29;20035;-75
2021/08/02 01:30:55;;;;;;;563.33;396.48;;;;;;;;;;4931707;29;20039;-74
2021/08/02 01:33:29;;;;;;;566.03;397.05;;;;;;;;;;4945336;28;20024;-74
2021/08/02 01:36:03;;;;;;;571.08;396.80;;;;;;;;;;4946917;29;20023;-75
2021/08/02 01:38:31;;;;;;;576.90;401.60;;;;;;;;;;4945262;28;20156;-74
2021/08/02 01:40:57;;;;;;;577.50;393.77;;;;;;;;;;4947088;29;20035;-75
2021/08/02 01:43:23;;;;;;;577.58;401.60;;;;;;;;;;4946568;29;20024;-74
2021/08/02 01:46:11;;;;;;;582.65;409.00;;;;;;;;;;4948047;28;20054;-74
2021/08/02 01:49:00;;;;;;;579.13;400.55;;;;;;;;;;4946825;28;20027;-74
2021/08/02 01:51:29;;;;;;;576.45;390.65;;;;;;;;;;4948377;29;20035;-74
2021/08/02 01:54:06;;;;;;;588.47;410.67;;;;;;;;;;4947475;29;20084;-74
2021/08/02 01:56:52;;;;;;;587.08;403.88;;;;;;;;;;4947515;29;20032;-75
2021/08/02 01:59:19;;;;;;;590.33;400.08;;;;;;;;;;4946924;29;20194;-75
2021/08/02 02:01:52;;;;;;;587.17;394.50;;;;;;;;;;4930741;29;20403;-75
2021/08/02 02:04:19;;;;;;;583.33;392.60;;;;;;;;;;4946908;29;20132;-74
2021/08/02 02:06:46;;;;;;;577.25;389.70;;;;;;;;;;4946907;28;20519;-75
2021/08/02 02:09:14;;;;;;;573.42;390.25;;;;;;;;;;4929839;28;20177;-75
2021/08/02 02:11:49;;;;;;;573.70;386.88;;;;;;;;;;4947800;28;21529;-74
2021/08/02 02:14:16;;;;;;;573.78;392.33;;;;;;;;;;4944844;28;20024;-74
2021/08/02 02:16:44;;;;;;;566.97;391.02;;;;;;;;;;4930475;29;20027;-74
2021/08/02 02:19:11;;;;;;;575.47;406.33;;;;;;;;;;4946996;29;20023;-74
2021/08/02 02:21:38;;;;;;;567.38;387.85;;;;;;;;;;4947798;29;20027;-74
2021/08/02 02:24:05;;;;;;;567.88;393.13;;;;;;;;;;4946517;29;20177;-74
2021/08/02 02:26:32;;;;;;;566.85;391.08;;;;;;;;;;4946972;28;20024;-74
2021/08/02 02:29:02;;;;;;;1018.97;425.63;;;;;;;;;;4945694;29;20026;-74
2021/08/02 02:31:28;;;;;;;560.85;387.50;;;;;;;;;;4946067;28;20022;-75
2021/08/02 02:33:57;;;;;;;563.33;384.42;;;;;;;;;;4928839;28;20345;-74
2021/08/02 02:36:23;;;;;;;572.67;399.10;;;;;;;;;;4946132;29;20038;-74
2021/08/02 02:38:50;;;;;;;570.10;397.52;;;;;;;;;;4946036;28;20496;-74
2021/08/02 02:41:17;;;;;;;563.63;383.92;;;;;;;;;;4947709;29;20070;-74
2021/08/02 02:43:43;;;;;;;566.65;392.60;;;;;;;;;;4947452;29;20035;-74
2021/08/02 02:46:09;;;;;;;565.25;387.95;;;;;;;;;;4948023;28;20085;-74
2021/08/02 02:48:35;;;;;;;565.28;392.80;;;;;;;;;;4950124;29;20604;-74
2021/08/02 02:51:02;;;;;;;564.33;391.45;;;;;;;;;;4949544;28;20024;-74
2021/08/02 02:53:28;;;;;;;562.88;389.40;;;;;;;;;;4932441;28;20501;-74
2021/08/02 02:55:55;;;;;;;561.45;381.17;;;;;;;;;;4948398;29;20031;-74
2021/08/02 02:58:21;;;;;;;562.38;385.85;;;;;;;;;;4948412;29;20178;-74
2021/08/02 03:00:48;;;;;;;557.05;381.52;;;;;;;;;;4946968;29;20127;-74
2021/08/02 03:03:15;;;;;;;564.53;395.10;;;;;;;;;;4950867;29;20112;-75
2021/08/02 03:05:41;;;;;;;560.70;385.20;;;;;;;;;;4931969;29;20037;-74
2021/08/02 03:08:08;;;;;;;560.58;381.52;;;;;;;;;;4948699;28;20365;-74
2021/08/02 03:10:35;;;;;;;559.50;384.92;;;;;;;;;;4949146;28;20081;-74
2021/08/02 03:13:01;;;;;;;555.55;377.48;;;;;;;;;;4949019;28;20099;-74
2021/08/02 03:15:27;;;;;;;555.95;372.73;;;;;;;;;;4949532;29;20019;-75
2021/08/02 03:17:54;;;;;;;559.03;382.70;;;;;;;;;;4948825;28;20074;-74
2021/08/02 03:20:20;;;;;;;561.50;389.23;;;;;;;;;;4948506;28;20035;-74
2021/08/02 03:22:48;;;;;;;555.85;374.50;;;;;;;;;;4950557;28;20089;-74
2021/08/02 03:25:34;;;;;;;557.95;381.48;;;;;;;;;;4949236;28;20031;-74
2021/08/02 03:28:06;;;;;;;555.88;379.33;;;;;;;;;;4952050;28;20416;-74
2021/08/02 03:30:35;;;;;;;555.08;380.83;;;;;;;;;;4949214;29;20077;-74
2021/08/02 03:33:02;;;;;;;556.15;379.83;;;;;;;;;;4950442;29;20058;-74
2021/08/02 03:35:29;;;;;;;557.97;390.17;;;;;;;;;;4948131;29;20464;-74
2021/08/02 03:37:55;;;;;;;556.78;387.10;;;;;;;;;;4949997;29;20089;-74
2021/08/02 03:40:21;;;;;;;551.95;382.08;;;;;;;;;;4948085;28;20031;-74
2021/08/02 03:42:48;;;;;;;559.83;394.05;;;;;;;;;;4949958;29;20056;-74
2021/08/02 03:45:16;;;;;;;555.33;390.73;;;;;;;;;;4948552;29;20673;-74
2021/08/02 03:47:42;;;;;;;554.22;386.77;;;;;;;;;;4949572;28;20537;-74
2021/08/02 03:50:09;;;;;;;554.95;387.65;;;;;;;;;;4948738;28;21038;-74
2021/08/02 03:52:35;;;;;;;554.17;384.55;;;;;;;;;;4949984;29;20023;-74
2021/08/02 03:55:02;;;;;;;558.08;386.85;;;;;;;;;;4931495;28;20089;-74
2021/08/02 03:57:28;;;;;;;552.58;374.67;;;;;;;;;;4947995;28;20388;-74
2021/08/02 03:59:54;;;;;;;554.63;381.13;;;;;;;;;;4948507;29;20031;-75
2021/08/02 04:02:20;;;;;;;551.30;373.08;;;;;;;;;;4928665;28;20034;-75
2021/08/02 04:04:46;;;;;;;554.63;378.88;;;;;;;;;;4936309;29;20139;-74
2021/08/02 04:07:12;;;;;;;549.65;371.10;;;;;;;;;;4948574;28;20091;-74
2021/08/02 04:09:38;;;;;;;554.88;376.70;;;;;;;;;;4947351;28;20096;-74
2021/08/02 04:12:04;;;;;;;557.33;381.98;;;;;;;;;;4948252;28;20031;-75
2021/08/02 04:14:30;;;;;;;550.72;368.42;;;;;;;;;;4929171;29;20032;-75
2021/08/02 04:16:56;;;;;;;552.00;375.70;;;;;;;;;;4947951;28;20106;-75
2021/08/02 04:19:22;;;;;;;551.47;369.27;;;;;;;;;;4930484;28;20174;-75
2021/08/02 04:21:49;;;;;;;554.15;372.88;;;;;;;;;;4948649;29;20027;-74
2021/08/02 04:24:15;;;;;;;551.53;372.90;;;;;;;;;;4947413;29;20031;-74
2021/08/02 04:26:41;;;;;;;549.60;375.20;;;;;;;;;;4948271;29;20038;-74
2021/08/02 04:29:08;;;;;;;550.20;371.58;;;;;;;;;;4948866;29;20016;-75
2021/08/02 04:31:34;;;;;;;550.25;375.15;;;;;;;;;;4947995;29;20058;-74
2021/08/02 04:34:00;;;;;;;553.90;375.00;;;;;;;;;;4949047;28;20050;-74
2021/08/02 04:36:26;;;;;;;549.05;369.58;;;;;;;;;;4947586;28;20039;-74
2021/08/02 04:38:53;;;;;;;553.55;377.65;;;;;;;;;;4947538;28;20076;-74
2021/08/02 04:41:19;;;;;;;551.58;377.95;;;;;;;;;;4947190;29;20727;-74
2021/08/02 04:43:45;;;;;;;550.53;372.88;;;;;;;;;;4948988;28;20036;-74
2021/08/02 04:46:11;;;;;;;549.83;376.35;;;;;;;;;;4948246;29;20028;-74
2021/08/02 04:48:37;;;;;;;548.67;369.70;;;;;;;;;;4949157;28;20503;-75
2021/08/02 04:51:03;;;;;;;554.22;378.67;;;;;;;;;;4947922;29;20015;-74
2021/08/02 04:53:29;;;;;;;553.05;376.45;;;;;;;;;;4947796;28;20041;-75
2021/08/02 04:55:55;;;;;;;551.50;378.85;;;;;;;;;;4948464;28;20102;-74
2021/08/02 04:58:21;;;;;;;548.13;368.05;;;;;;;;;;4915079;28;20096;-74
2021/08/02 05:00:47;;;;;;;555.92;389.88;;;;;;;;;;4930818;28;20377;-72
2021/08/02 05:03:13;;;;;;;566.50;404.13;;;;;;;;;;4929717;29;20103;-73
2021/08/02 05:05:39;;;;;;;590.95;402.52;;;;;;;;;;4948699;29;20453;-73
2021/08/02 05:08:05;;;;;;;552.28;378.00;;;;;;;;;;4947291;29;20031;-76
2021/08/02 05:10:32;;;;;;;553.03;385.40;;;;;;;;;;4948061;28;20112;-73
2021/08/02 05:12:59;;;;;;;552.15;383.05;;;;;;;;;;4929130;29;20586;-73
2021/08/02 05:15:25;;;;;;;547.00;371.60;;;;;;;;;;4926785;28;20065;-73
2021/08/02 05:17:51;;;;;;;653.97;410.48;;;;;;;;;;4948032;29;20059;-74
2021/08/02 05:20:19;;;;;;;554.53;393.13;;;;;;;;;;4931331;29;20118;-73
2021/08/02 05:22:45;;;;;;;551.53;388.58;;;;;;;;;;4944915;28;20023;-73
2021/08/02 05:25:11;;;;;;;551.60;388.15;;;;;;;;;;4948444;29;20031;-73
2021/08/02 05:27:37;;;;;;;549.47;376.63;;;;;;;;;;4947763;29;20031;-73
2021/08/02 05:30:04;;;;;;;553.30;392.63;;;;;;;;;;4948204;29;20023;-75
2021/08/02 05:32:30;;;;;;;551.78;391.58;;;;;;;;;;4946169;28;20033;-74
2021/08/02 05:34:56;;;;;;;552.75;396.65;;;;;;;;;;4948319;29;20035;-73
2021/08/02 05:37:22;;;;;;;553.28;394.08;;;;;;;;;;4946736;29;20043;-74
2021/08/02 05:39:48;;;;;;;553.33;396.75;;;;;;;;;;4949183;28;20388;-73
2021/08/02 05:42:13;;;;;;;549.03;387.83;;;;;;;;;;4946400;29;20059;-73
2021/08/02 05:44:39;;;;;;;553.05;398.33;;;;;;;;;;4947214;29;20042;-73
2021/08/02 05:47:06;;;;;;;553.05;396.05;;;;;;;;;;4947026;29;20050;-73
2021/08/02 05:49:32;;;;;;;549.25;390.35;;;;;;;;;;4948524;29;20049;-73
2021/08/02 05:52:00;;;;;;;557.00;409.15;;;;;;;;;;4947365;29;20023;-73
2021/08/02 05:54:26;;;;;;;550.45;398.75;;;;;;;;;;4948097;29;20034;-73
2021/08/02 05:56:52;;;;;;;553.30;403.27;;;;;;;;;;4947258;28;20031;-73
2021/08/02 05:59:18;;;;;;;551.53;403.70;;;;;;;;;;4947686;29;20102;-73
2021/08/02 06:01:44;;;;;;;551.80;397.55;;;;;;;;;;4946765;28;20038;-73
2021/08/02 06:04:10;;;;;;;552.85;398.55;;;;;;;;;;4930471;28;20035;-73
2021/08/02 06:06:36;;;;;;;550.95;401.80;;;;;;;;;;4947117;29;20058;-74
2021/08/02 06:09:02;;;;;;;549.40;401.65;;;;;;;;;;4947379;29;20036;-74
2021/08/02 06:11:28;;;;;;;553.60;409.50;;;;;;;;;;4947615;29;20525;-73
2021/08/02 06:13:54;;;;;;;554.67;412.45;;;;;;;;;;4946323;28;20038;-73
2021/08/02 06:16:21;;;;;;;554.83;410.23;;;;;;;;;;4931952;29;20114;-73
2021/08/02 06:18:48;;;;;;;560.85;431.90;;;;;;;;;;4946296;29;20020;-73
2021/08/02 06:21:14;;;;;;;727.15;488.27;;;;;;;;;;4931597;29;20023;-74
2021/08/02 06:23:40;;;;;;;565.60;435.50;;;;;;;;;;4947865;29;20034;-73
2021/08/02 06:26:06;;;;;;;559.50;422.83;;;;;;;;;;4950886;29;20556;-73
2021/08/02 06:28:32;;;;;;;558.83;424.55;;;;;;;;;;4948006;29;20023;-73
2021/08/02 06:31:01;;;;;;;554.83;426.02;;;;;;;;;;4945200;29;20019;-73
2021/08/02 06:33:27;;;;;;;560.33;432.90;;;;;;;;;;4926850;29;20479;-73
2021/08/02 06:35:53;;;;;;;556.42;428.42;;;;;;;;;;4940745;28;20416;-74
2021/08/02 06:38:19;;;;;;;553.58;425.77;;;;;;;;;;4945185;28;20107;-74
2021/08/02 06:40:45;;;;;;;556.63;432.45;;;;;;;;;;4948717;28;20027;-73
2021/08/02 06:43:12;;;;;;;559.50;437.45;;;;;;;;;;4927906;28;20023;-74
2021/08/02 06:45:38;;;;;;;564.03;446.58;;;;;;;;;;4945755;29;20023;-74
2021/08/02 06:48:04;;;;;;;571.63;457.10;;;;;;;;;;4942478;29;20024;-73
2021/08/02 06:50:30;;;;;;;563.58;444.10;;;;;;;;;;4946913;28;20058;-73
2021/08/02 06:52:56;;;;;;;555.70;431.10;;;;;;;;;;4946229;29;20480;-73
2021/08/02 06:55:22;;;;;;;560.13;442.00;;;;;;;;;;4943850;28;20046;-74
2021/08/02 06:57:49;;;;;;;560.38;450.60;;;;;;;;;;4947371;29;20364;-73
2021/08/02 07:00:15;;;;;;;560.58;451.20;;;;;;;;;;4942114;29;20486;-73
2021/08/02 07:02:41;;;;;;;562.42;449.58;;;;;;;;;;4947375;28;20036;-73
2021/08/02 07:05:07;;;;;;;564.90;461.40;;;;;;;;;;4942023;28;20043;-74
2021/08/02 07:07:33;;;;;;;560.47;450.50;;;;;;;;;;4948016;29;20024;-74
2021/08/02 07:09:59;;;;;;;561.78;450.15;;;;;;;;;;4955829;28;20041;-73
2021/08/02 07:12:25;;;;;;;564.28;458.45;;;;;;;;;;4932458;29;20460;-73
2021/08/02 07:14:52;;;;;;;562.53;454.98;;;;;;;;;;4932535;28;20034;-73
2021/08/02 07:17:18;;;;;;;558.92;455.88;;;;;;;;;;4949102;28;20102;-73
2021/08/02 07:19:43;;;;;;;558.67;457.88;;;;;;;;;;4956272;28;20023;-73
2021/08/02 07:22:09;;;;;;;577.25;492.08;;;;;;;;;;4971367;28;20039;-74
2021/08/02 07:24:35;;;;;;;683.58;483.80;;;;;;;;;;4930185;29;20079;-72
2021/08/02 07:27:01;;;;;;;562.25;465.83;;;;;;;;;;4947573;29;20031;-72
2021/08/02 07:29:27;;;;;;;560.35;465.38;;;;;;;;;;4949013;29;20023;-72
2021/08/02 07:31:53;;;;;;;557.50;460.75;;;;;;;;;;4981931;28;20033;-72
2021/08/02 07:34:19;;;;;;;557.33;462.80;;;;;;;;;;4981405;28;20441;-72
2021/08/02 07:36:45;;;;;;;556.35;460.23;;;;;;;;;;4949747;28;20345;-72
2021/08/02 07:39:12;;;;;;;579.13;472.38;;;;;;;;;;4948451;29;20035;-72
2021/08/02 07:41:37;;;;;;;563.60;474.08;;;;;;;;;;4949293;29;20031;-72
2021/08/02 07:44:04;;;;;;;563.80;472.95;;;;;;;;;;4948395;28;20039;-72
2021/08/02 07:46:31;;;;;;;563.60;468.98;;;;;;;;;;4946453;29;20130;-73
2021/08/02 07:48:57;;;;;;;561.92;472.77;;;;;;;;;;4946964;28;20011;-74
2021/08/02 07:51:23;;;;;;;561.67;474.65;;;;;;;;;;4946974;28;20031;-73
2021/08/02 07:53:49;;;;;;;563.30;477.38;;;;;;;;;;4945162;29;20050;-73
2021/08/02 07:56:15;;;;;;;564.25;477.13;;;;;;;;;;4950271;28;20030;-72
2021/08/02 07:58:41;;;;;;;565.92;480.23;;;;;;;;;;4946991;28;20516;-73
2021/08/02 08:01:07;;;;;;;564.00;478.50;;;;;;;;;;4940861;28;20023;-73
2021/08/02 08:03:33;;;;;;;564.92;478.70;;;;;;;;;;4945253;28;20455;-74
2021/08/02 08:05:59;;;;;;;563.20;481.42;;;;;;;;;;4948703;28;20835;-73
2021/08/02 08:08:25;;;;;;;563.95;481.25;;;;;;;;;;4944641;28;20197;-73
2021/08/02 08:10:51;;;;;;;568.53;486.45;;;;;;;;;;4941246;28;20438;-75
2021/08/02 08:13:17;;;;;;;569.20;489.17;;;;;;;;;;4925485;28;20050;-78
2021/08/02 08:15:43;;;;;;;562.65;479.52;;;;;;;;;;4941236;28;20030;-77
2021/08/02 08:18:09;;;;;;;563.40;483.45;;;;;;;;;;4946539;28;20023;-81
2021/08/02 08:20:35;;;;;;;561.78;480.08;;;;;;;;;;4947062;28;20628;-75
2021/08/02 08:23:01;;;;;;;556.95;468.17;;;;;;;;;;4948479;29;20023;-75
2021/08/02 08:25:27;;;;;;;560.65;477.60;;;;;;;;;;4948050;29;20039;-75
2021/08/02 08:27:53;;;;;;;558.67;474.73;;;;;;;;;;4931479;28;20023;-74
2021/08/02 08:30:21;;;;;;;563.47;485.67;;;;;;;;;;4945148;28;20081;-75
2021/08/02 08:32:47;;;;;;;566.60;494.42;;;;;;;;;;4945905;29;20483;-74
2021/08/02 08:35:13;;;;;;;563.38;488.60;;;;;;;;;;4945741;28;20027;-74
2021/08/02 08:37:40;;;;;;;563.92;494.90;;;;;;;;;;4949103;28;20027;-74
2021/08/02 08:40:07;;;;;;;567.85;496.15;;;;;;;;;;4970500;28;20035;-75
2021/08/02 08:42:33;;;;;;;563.03;493.23;;;;;;;;;;5002772;28;20505;-75
2021/08/02 08:44:59;;;;;;;564.47;494.13;;;;;;;;;;4930342;28;20551;-75
2021/08/02 08:47:25;;;;;;;561.42;485.23;;;;;;;;;;4945978;28;20027;-75
2021/08/02 08:49:51;;;;;;;562.13;486.38;;;;;;;;;;4930570;28;20027;-74
2021/08/02 08:52:17;;;;;;;563.15;486.52;;;;;;;;;;4947801;29;20034;-75
2021/08/02 08:54:44;;;;;;;562.90;490.73;;;;;;;;;;4946617;28;20092;-73
2021/08/02 08:57:11;;;;;;;562.25;489.20;;;;;;;;;;4943441;29;20058;-73
2021/08/02 08:59:47;;;;;;;564.70;494.25;;;;;;;;;;4938682;29;20031;-73
2021/08/02 09:02:13;;;;;;;564.78;491.63;;;;;;;;;;4946279;28;20669;-76
2021/08/02 09:04:40;;;;;;;563.58;494.00;;;;;;;;;;4948052;28;20046;-74
2021/08/02 09:07:06;;;;;;;561.63;489.02;;;;;;;;;;4952168;28;20118;-74
2021/08/02 09:09:35;;;;;;;564.38;493.25;;;;;;;;;;4944498;28;20098;-74
2021/08/02 09:12:13;;;;;;;565.35;496.92;;;;;;;;;;4948352;29;20019;-73
2021/08/02 09:14:49;;;;;;;563.53;495.88;;;;;;;;;;4946634;29;20023;-73
2021/08/02 09:17:26;;;;;;;567.83;505.05;;;;;;;;;;4947825;28;20568;-74
2021/08/02 09:19:52;;;;;;;567.55;505.08;;;;;;;;;;4948641;28;20015;-75
2021/08/02 09:22:31;;;;;;;565.45;503.10;;;;;;;;;;4946938;29;20024;-73
2021/08/02 09:25:25;;;;;;;576.08;513.13;;;;;;;;;;4943297;29;20281;-74
2021/08/02 09:27:52;;;;;;;568.10;505.48;;;;;;;;;;4953065;28;20031;-73
2021/08/02 09:30:25;;;;;;;581.90;518.80;;;;;;;;;;4946596;28;20092;-73
2021/08/02 09:33:02;;;;;;;575.70;513.20;;;;;;;;;;4947522;29;20019;-73
2021/08/02 09:35:31;;;;;;;578.40;515.92;;;;;;;;;;4946737;29;20055;-73
2021/08/02 09:37:59;;;;;;;592.13;529.10;;;;;;;;;;4928808;28;20073;-73
2021/08/02 09:40:25;;;;;;;607.08;543.65;;;;;;;;;;4943653;28;20393;-73
2021/08/02 09:42:55;;;;;;;629.08;564.63;;;;;;;;;;4943409;29;20412;-73
2021/08/02 09:45:21;;;;;;;;;;;;;;;;;;4945106;29;20055;-74
2021/08/02 09:47:50;;;;;;;620.08;556.58;;;;;;;;;;4945668;29;19960;-73
2021/08/02 09:50:27;;;;;;;662.15;591.95;;;;;;;;;;4944783;29;20027;-74
2021/08/02 09:52:53;;;;;;;625.83;561.88;;;;;;;;;;4940332;29;20038;-73
2021/08/02 09:55:21;;;;;;;641.72;573.83;;;;;;;;;;4947650;28;20027;-74
2021/08/02 09:57:50;;;;;;;637.72;572.92;;;;;;;;;;4951309;28;20008;-73
2021/08/02 10:00:18;;;;;;;659.53;589.67;;;;;;;;;;4951221;28;20021;-73
2021/08/02 10:02:46;;;;;;;652.03;587.80;;;;;;;;;;4949756;29;20022;-75
2021/08/02 10:05:12;;;;;;;645.30;581.75;;;;;;;;;;4951554;29;20038;-74
2021/08/02 10:07:38;;;;;;;639.28;576.03;;;;;;;;;;4936187;29;20100;-73
2021/08/02 10:10:05;;;;;;;639.90;574.80;;;;;;;;;;4946035;29;20031;-75
2021/08/02 10:12:44;;;;;;;669.28;603.25;;;;;;;;;;4929913;28;20015;-73
2021/08/02 10:15:21;;;;;;;713.67;644.92;;;;;;;;;;4944811;28;20102;-73
2021/08/02 10:17:50;;;;;;;693.22;628.78;;;;;;;;;;4946823;29;20034;-75
2021/08/02 10:20:23;;;;;;;723.80;658.22;;;;;;;;;;4949042;28;20046;-74
2021/08/02 10:22:49;;;;;;;733.22;667.15;;;;;;;;;;4946520;28;20042;-74
2021/08/02 10:25:17;;;;;;;736.85;670.97;;;;;;;;;;4945797;29;20611;-74
2021/08/02 10:27:43;;;;;;;757.00;690.90;;;;;;;;;;4951710;28;20104;-74
2021/08/02 10:30:29;;;;;;;787.60;720.03;;;;;;;;;;4951981;28;20024;-73
2021/08/02 10:32:56;;;;;;;791.03;723.55;;;;;;;;;;4953341;28;20597;-74
2021/08/02 10:35:39;;;;;;;818.60;750.53;;;;;;;;;;4928318;28;20023;-75
2021/08/02 10:38:06;;;;;;;827.58;759.05;;;;;;;;;;4942883;28;20627;-74
2021/08/02 10:40:42;;;;;;;791.83;725.28;;;;;;;;;;4949191;28;20031;-74
2021/08/02 10:43:08;;;;;;;784.03;716.58;;;;;;;;;;4947097;28;20108;-74
2021/08/02 10:45:35;;;;;;;753.90;687.53;;;;;;;;;;4950733;28;20106;-74
2021/08/02 10:48:01;;;;;;;747.20;681.10;;;;;;;;;;4952440;28;20556;-74
2021/08/02 10:50:30;;;;;;;759.03;692.45;;;;;;;;;;4951282;28;20066;-74
2021/08/02 10:52:56;;;;;;;747.72;682.05;;;;;;;;;;4940479;28;20023;-74
2021/08/02 10:55:25;;;;;;;778.55;708.88;;;;;;;;;;4941053;28;20118;-75
2021/08/02 10:57:58;;;;;;;1489.50;930.33;;;;;;;;;;4938134;29;20345;-74
2021/08/02 11:00:24;;;;;;;730.92;662.83;;;;;;;;;;4917272;28;20511;-74
2021/08/02 11:02:55;;;;;;;706.75;640.75;;;;;;;;;;4949497;29;20035;-75
2021/08/02 11:05:42;;;;;;;698.58;633.42;;;;;;;;;;4949240;28;20385;-75
2021/08/02 11:08:09;;;;;;;676.08;612.00;;;;;;;;;;4949779;29;20110;-75
2021/08/02 11:10:35;;;;;;;678.47;614.03;;;;;;;;;;4945760;29;20099;-73
2021/08/02 11:13:01;;;;;;;672.00;607.63;;;;;;;;;;4950607;28;20500;-74
2021/08/02 11:15:28;;;;;;;656.75;592.50;;;;;;;;;;4947752;29;20031;-73
2021/08/02 11:17:54;;;;;;;670.45;605.88;;;;;;;;;;4949250;29;20100;-74
2021/08/02 11:20:21;;;;;;;687.42;622.72;;;;;;;;;;4954370;28;20019;-75
2021/08/02 11:22:58;;;;;;;704.47;639.35;;;;;;;;;;4947245;28;20069;-74
2021/08/02 11:25:37;;;;;;;697.58;632.88;;;;;;;;;;4952812;28;20236;-74
2021/08/02 11:28:03;;;;;;;693.78;629.13;;;;;;;;;;4948440;28;20039;-73
2021/08/02 11:30:30;;;;;;;694.15;629.78;;;;;;;;;;4963366;28;20043;-73
2021/08/02 11:32:56;;;;;;;704.53;639.50;;;;;;;;;;4977493;28;20106;-75
2021/08/02 11:35:48;;;;;;;711.88;647.05;;;;;;;;;;4960944;28;20096;-74
2021/08/02 11:38:14;;;;;;;698.70;634.53;;;;;;;;;;4947500;28;20031;-74
2021/08/02 11:40:40;;;;;;;695.58;630.95;;;;;;;;;;4963160;28;20031;-74
2021/08/02 11:43:07;;;;;;;696.15;631.63;;;;;;;;;;4953364;28;20425;-74
2021/08/02 11:45:35;;;;;;;703.67;639.28;;;;;;;;;;4946783;28;20063;-75
2021/08/02 11:48:02;;;;;;;741.88;675.05;;;;;;;;;;4950917;28;20499;-74
2021/08/02 11:50:31;;;;;;;740.72;675.42;;;;;;;;;;4946319;28;20450;-74
2021/08/02 11:52:58;;;;;;;751.50;685.65;;;;;;;;;;4945323;28;20085;-74
2021/08/02 11:55:24;;;;;;;758.25;685.55;;;;;;;;;;4946718;28;20012;-74
2021/08/02 11:57:58;;;;;;;738.95;673.72;;;;;;;;;;4950924;28;20019;-74
2021/08/02 12:00:24;;;;;;;767.10;697.55;;;;;;;;;;4958371;28;20139;-74
2021/08/02 12:02:51;;;;;;;750.53;684.85;;;;;;;;;;4950046;28;20030;-74
2021/08/02 12:05:24;;;;;;;756.90;691.10;;;;;;;;;;4950547;28;20043;-75
2021/08/02 12:07:50;;;;;;;754.55;689.13;;;;;;;;;;4953194;28;20345;-75
2021/08/02 12:10:19;;;;;;;771.53;705.05;;;;;;;;;;4948894;28;20031;-74
2021/08/02 12:12:56;;;;;;;771.58;704.83;;;;;;;;;;4950151;28;20109;-73
2021/08/02 12:15:22;;;;;;;762.90;697.40;;;;;;;;;;4962605;28;20030;-74
2021/08/02 12:17:52;;;;;;;769.25;703.15;;;;;;;;;;4953225;28;20065;-75
2021/08/02 12:20:28;;;;;;;757.97;692.45;;;;;;;;;;4945168;28;20446;-77
2021/08/02 12:22:54;;;;;;;743.63;678.55;;;;;;;;;;4950297;28;20016;-77
2021/08/02 12:25:20;;;;;;;767.85;701.88;;;;;;;;;;4974393;28;20496;-77
2021/08/02 12:27:46;;;;;;;791.42;724.85;;;;;;;;;;4958770;28;20027;-77
2021/08/02 12:30:13;;;;;;;806.35;739.67;;;;;;;;;;4960077;28;20040;-77
2021/08/02 12:32:43;;;;;;;826.50;759.45;;;;;;;;;;4977989;28;20044;-77
2021/08/02 12:35:13;;;;;;;859.55;788.78;;;;;;;;;;4961121;28;20102;-77
2021/08/02 12:37:40;;;;;;;838.45;771.38;;;;;;;;;;4948557;28;20027;-78
2021/08/02 12:40:08;;;;;;;819.50;752.75;;;;;;;;;;4947319;28;20760;-78
2021/08/02 12:42:36;;;;;;;788.00;722.10;;;;;;;;;;4948272;28;20047;-79
2021/08/02 12:45:02;;;;;;;764.92;699.45;;;;;;;;;;4948015;28;20035;-77
2021/08/02 12:47:28;;;;;;;737.03;672.00;;;;;;;;;;4917143;29;20028;-75
2021/08/02 12:49:57;;;;;;;713.78;649.22;;;;;;;;;;4943802;29;20020;-75
2021/08/02 12:52:25;;;;;;;700.55;635.72;;;;;;;;;;4935710;29;20089;-75
2021/08/02 12:54:51;;;;;;;687.38;623.03;;;;;;;;;;4946605;28;20011;-75
2021/08/02 12:57:17;;;;;;;677.92;613.63;;;;;;;;;;4943410;29;20384;-75
2021/08/02 12:59:43;;;;;;;674.00;609.65;;;;;;;;;;4947568;29;20106;-74
2021/08/02 13:02:09;;;;;;;695.78;627.08;;;;;;;;;;4931793;28;20307;-75
2021/08/02 13:04:35;;;;;;;652.30;588.25;;;;;;;;;;4948102;29;20046;-76
2021/08/02 13:07:01;;;;;;;685.63;598.03;;;;;;;;;;4948785;29;20019;-75
2021/08/02 13:09:28;;;;;;;641.33;577.08;;;;;;;;;;4948902;29;20043;-75
2021/08/02 13:11:54;;;;;;;630.60;566.83;;;;;;;;;;4939319;28;20018;-75
2021/08/02 13:14:20;;;;;;;619.83;556.28;;;;;;;;;;4945987;28;20028;-75
2021/08/02 13:16:46;;;;;;;615.40;552.20;;;;;;;;;;4948800;29;20417;-75
2021/08/02 13:19:11;;;;;;;613.42;550.10;;;;;;;;;;4955886;28;20019;-76
2021/08/02 13:21:37;;;;;;;614.70;551.13;;;;;;;;;;4948053;29;20023;-74
2021/08/02 13:26:58;;;;;;;608.33;544.55;;;;;;;;;;4933094;29;20471;-75
2021/08/02 13:29:34;;;;;;;614.15;550.28;;;;;;;;;;4948219;29;20015;-74
2021/08/02 13:32:01;;;;;;;600.55;537.13;;;;;;;;;;4948041;29;20122;-74
2021/08/02 13:34:29;;;;;;;602.50;538.60;;;;;;;;;;4946220;28;20077;-74
2021/08/02 13:36:56;;;;;;;598.13;534.65;;;;;;;;;;4940967;28;20047;-74
2021/08/02 13:39:22;;;;;;;606.15;542.40;;;;;;;;;;4945107;28;20023;-75
2021/08/02 13:41:48;;;;;;;615.65;551.83;;;;;;;;;;4953284;28;20106;-74
2021/08/02 13:44:14;;;;;;;629.53;565.70;;;;;;;;;;4947296;28;20028;-74
2021/08/02 13:46:40;;;;;;;640.80;576.72;;;;;;;;;;4945746;29;20398;-75
2021/08/02 13:49:06;;;;;;;636.78;573.40;;;;;;;;;;4945198;29;20119;-74
2021/08/02 13:51:33;;;;;;;649.50;585.03;;;;;;;;;;4945148;28;20094;-75
2021/08/02 13:53:59;;;;;;;637.35;573.67;;;;;;;;;;4944882;28;20089;-74
2021/08/02 13:56:25;;;;;;;633.10;569.45;;;;;;;;;;4955089;28;20455;-74
2021/08/02 13:58:51;;;;;;;626.40;562.70;;;;;;;;;;4947260;28;20098;-74
2021/08/02 14:01:17;;;;;;;630.15;566.08;;;;;;;;;;4945618;28;20357;-74